sensor_id;sensor_type;location;lat;lon;timestamp;pressure;altitude;pressure_sealevel;temperature;humidity
28310;BME280;15571;50.974;13.936;2023-03-22T00:01:50;99865.41;;;11.28;100.00
28310;BME280;15571;50.974;13.936;2023-03-22T00:04:56;99865.41;;;11.28;100.00
28310;BME280;15571;50.974;13.936;2023-03-22T00:08:02;99864.53;;;11.31;100.00
28310;BME280;15571;50.974;13.936;2023-03-22T00:11:06;99865.38;;;11.31;100.00
28310;BME280;15571;50.974;13.936;2023-03-22T00:14:13;99868.84;;;11.32;100.00
28310;BME280;15571;50.974;13.936;2023-03-22T00:17:21;99868.84;;;11.33;100.00
28310;BME280;15571;50.974;13.936;2023-03-22T00:20:25;99861.84;;;11.34;100.00
28310;BME280;15571;50.974;13.936;2023-03-22T00:23:31;99856.63;;;11.32;100.00
28310;BME280;15571;50.974;13.936;2023-03-22T00:26:33;99860.09;;;11.34;100.00
28310;BME280;15571;50.974;13.936;2023-03-22T00:29:40;99853.13;;;11.33;100.00
28310;BME280;15571;50.974;13.936;2023-03-22T00:32:51;99854.91;;;11.31;100.00
28310;BME280;15571;50.974;13.936;2023-03-22T00:35:57;99856.66;;;11.31;100.00
28310;BME280;15571;50.974;13.936;2023-03-22T00:39:00;99855.78;;;11.30;100.00
28310;BME280;15571;50.974;13.936;2023-03-22T00:42:03;99851.44;;;11.31;100.00
28310;BME280;15571;50.974;13.936;2023-03-22T00:45:09;99851.44;;;11.29;100.00
28310;BME280;15571;50.974;13.936;2023-03-22T00:48:14;99848.03;;;11.24;100.00
28310;BME280;15571;50.974;13.936;2023-03-22T00:51:18;99842.00;;;11.17;100.00
28310;BME280;15571;50.974;13.936;2023-03-22T00:54:20;99836.78;;;11.16;100.00
28310;BME280;15571;50.974;13.936;2023-03-22T00:57:25;99837.69;;;11.15;100.00
28310;BME280;15571;50.974;13.936;2023-03-22T01:00:31;99826.38;;;11.11;100.00
28310;BME280;15571;50.974;13.936;2023-03-22T01:03:41;99817.63;;;11.11;100.00
28310;BME280;15571;50.974;13.936;2023-03-22T01:06:47;99811.63;;;11.05;100.00
28310;BME280;15571;50.974;13.936;2023-03-22T01:09:50;99812.50;;;11.04;100.00
28310;BME280;15571;50.974;13.936;2023-03-22T01:12:55;99822.97;;;11.04;100.00
28310;BME280;15571;50.974;13.936;2023-03-22T01:16:08;99802.88;;;11.05;100.00
28310;BME280;15571;50.974;13.936;2023-03-22T01:19:11;99808.09;;;11.05;100.00
28310;BME280;15571;50.974;13.936;2023-03-22T01:22:15;99813.38;;;11.03;100.00
28310;BME280;15571;50.974;13.936;2023-03-22T01:25:21;99813.41;;;11.00;100.00
28310;BME280;15571;50.974;13.936;2023-03-22T01:28:27;99816.97;;;10.96;100.00
28310;BME280;15571;50.974;13.936;2023-03-22T01:31:31;99811.81;;;10.92;100.00
28310;BME280;15571;50.974;13.936;2023-03-22T01:34:37;99803.06;;;10.91;100.00
28310;BME280;15571;50.974;13.936;2023-03-22T01:37:45;99806.56;;;10.90;100.00
28310;BME280;15571;50.974;13.936;2023-03-22T01:40:48;99797.00;;;10.87;100.00
28310;BME280;15571;50.974;13.936;2023-03-22T01:44:06;99790.06;;;10.83;100.00
28310;BME280;15571;50.974;13.936;2023-03-22T01:47:15;99789.22;;;10.83;100.00
28310;BME280;15571;50.974;13.936;2023-03-22T01:50:20;99789.22;;;10.83;100.00
28310;BME280;15571;50.974;13.936;2023-03-22T01:53:26;99790.13;;;10.80;100.00
28310;BME280;15571;50.974;13.936;2023-03-22T01:56:33;99791.09;;;10.71;100.00
28310;BME280;15571;50.974;13.936;2023-03-22T01:59:44;99779.88;;;10.63;100.00
28310;BME280;15571;50.974;13.936;2023-03-22T02:03:12;99785.19;;;10.55;100.00
28310;BME280;15571;50.974;13.936;2023-03-22T02:06:20;99777.41;;;10.51;100.00
28310;BME280;15571;50.974;13.936;2023-03-22T02:09:28;99779.22;;;10.46;100.00
28310;BME280;15571;50.974;13.936;2023-03-22T02:12:33;99773.13;;;10.43;100.00
28310;BME280;15571;50.974;13.936;2023-03-22T02:15:54;99782.75;;;10.43;100.00
28310;BME280;15571;50.974;13.936;2023-03-22T02:19:33;99779.34;;;10.33;100.00
28310;BME280;15571;50.974;13.936;2023-03-22T02:26:30;99779.53;;;10.15;100.00
28310;BME280;15571;50.974;13.936;2023-03-22T02:29:42;99786.53;;;10.12;100.00
28310;BME280;15571;50.974;13.936;2023-03-22T02:32:59;99787.47;;;10.07;100.00
28310;BME280;15571;50.974;13.936;2023-03-22T02:39:35;99784.06;;;9.99;100.00
28310;BME280;15571;50.974;13.936;2023-03-22T02:42:48;99784.97;;;9.96;100.00
28310;BME280;15571;50.974;13.936;2023-03-22T02:45:57;99790.19;;;9.96;100.00
28310;BME280;15571;50.974;13.936;2023-03-22T02:49:06;99779.75;;;9.93;100.00
28310;BME280;15571;50.974;13.936;2023-03-22T02:52:13;99784.16;;;9.89;100.00
28310;BME280;15571;50.974;13.936;2023-03-22T02:55:23;99777.22;;;9.84;100.00
28310;BME280;15571;50.974;13.936;2023-03-22T02:58:32;99779.88;;;9.80;100.00
28310;BME280;15571;50.974;13.936;2023-03-22T03:01:36;99767.72;;;9.76;100.00
28310;BME280;15571;50.974;13.936;2023-03-22T03:04:41;99767.75;;;9.70;100.00
28310;BME280;15571;50.974;13.936;2023-03-22T03:07:59;99774.78;;;9.65;100.00
28310;BME280;15571;50.974;13.936;2023-03-22T03:11:09;99776.59;;;9.60;100.00
28310;BME280;15571;50.974;13.936;2023-03-22T03:14:22;99783.63;;;9.53;100.00
28310;BME280;15571;50.974;13.936;2023-03-22T03:17:33;99781.91;;;9.47;100.00
28310;BME280;15571;50.974;13.936;2023-03-22T03:20:48;99778.50;;;9.39;100.00
28310;BME280;15571;50.974;13.936;2023-03-22T03:23:59;99778.53;;;9.36;100.00
28310;BME280;15571;50.974;13.936;2023-03-22T03:27:13;99781.16;;;9.33;100.00
28310;BME280;15571;50.974;13.936;2023-03-22T03:30:18;99777.69;;;9.29;100.00
28310;BME280;15571;50.974;13.936;2023-03-22T03:33:25;99780.31;;;9.26;100.00
28310;BME280;15571;50.974;13.936;2023-03-22T03:36:28;99778.63;;;9.22;100.00
28310;BME280;15571;50.974;13.936;2023-03-22T03:39:36;99777.78;;;9.15;100.00
28310;BME280;15571;50.974;13.936;2023-03-22T03:42:45;99777.81;;;9.12;100.00
28310;BME280;15571;50.974;13.936;2023-03-22T03:45:55;99783.94;;;9.05;100.00
28310;BME280;15571;50.974;13.936;2023-03-22T03:49:03;99779.66;;;8.98;100.00
28310;BME280;15571;50.974;13.936;2023-03-22T03:52:06;99791.00;;;8.91;100.00
28310;BME280;15571;50.974;13.936;2023-03-22T03:55:12;99785.84;;;8.81;100.00
28310;BME280;15571;50.974;13.936;2023-03-22T03:58:22;99786.72;;;8.79;100.00
28310;BME280;15571;50.974;13.936;2023-03-22T04:01:30;99781.47;;;8.79;100.00
28310;BME280;15571;50.974;13.936;2023-03-22T04:04:50;99777.16;;;8.79;100.00
28310;BME280;15571;50.974;13.936;2023-03-22T04:07:58;99773.69;;;8.76;100.00
28310;BME280;15571;50.974;13.936;2023-03-22T04:11:02;99768.47;;;8.74;100.00
28310;BME280;15571;50.974;13.936;2023-03-22T04:14:14;99783.25;;;8.72;100.00
28310;BME280;15571;50.974;13.936;2023-03-22T04:17:22;99780.69;;;8.66;100.00
28310;BME280;15571;50.974;13.936;2023-03-22T04:20:30;99771.13;;;8.63;100.00
28310;BME280;15571;50.974;13.936;2023-03-22T04:23:33;99772.03;;;8.61;100.00
28310;BME280;15571;50.974;13.936;2023-03-22T04:26:38;99769.41;;;8.61;100.00
28310;BME280;15571;50.974;13.936;2023-03-22T04:29:59;99763.34;;;8.59;100.00
28310;BME280;15571;50.974;13.936;2023-03-22T04:33:24;99765.06;;;8.56;100.00
28310;BME280;15571;50.974;13.936;2023-03-22T04:37:06;99776.41;;;8.49;100.00
28310;BME280;15571;50.974;13.936;2023-03-22T04:40:21;99771.19;;;8.41;100.00
28310;BME280;15571;50.974;13.936;2023-03-22T04:43:40;99770.38;;;8.32;100.00
28310;BME280;15571;50.974;13.936;2023-03-22T04:46:51;99773.84;;;8.31;100.00
28310;BME280;15571;50.974;13.936;2023-03-22T04:49:56;99766.91;;;8.30;100.00
28310;BME280;15571;50.974;13.936;2023-03-22T04:53:01;99768.63;;;8.31;100.00
28310;BME280;15571;50.974;13.936;2023-03-22T04:56:10;99771.25;;;8.31;100.00
28310;BME280;15571;50.974;13.936;2023-03-22T04:59:12;99770.38;;;8.30;100.00
28310;BME280;15571;50.974;13.936;2023-03-22T05:02:24;99772.13;;;8.30;100.00
28310;BME280;15571;50.974;13.936;2023-03-22T05:05:29;99766.91;;;8.26;100.00
28310;BME280;15571;50.974;13.936;2023-03-22T05:08:37;99768.66;;;8.21;100.00
28310;BME280;15571;50.974;13.936;2023-03-22T05:11:43;99766.06;;;8.14;100.00
28310;BME280;15571;50.974;13.936;2023-03-22T05:15:13;99777.38;;;8.11;100.00
28310;BME280;15571;50.974;13.936;2023-03-22T05:18:18;99772.16;;;8.08;100.00
28310;BME280;15571;50.974;13.936;2023-03-22T05:21:27;99774.78;;;8.06;100.00
28310;BME280;15571;50.974;13.936;2023-03-22T05:24:37;99774.78;;;8.03;100.00
28310;BME280;15571;50.974;13.936;2023-03-22T05:27:43;99767.84;;;8.01;100.00
28310;BME280;15571;50.974;13.936;2023-03-22T05:31:09;99761.75;;;8.00;100.00
28310;BME280;15571;50.974;13.936;2023-03-22T05:34:25;99772.19;;;7.99;100.00
28310;BME280;15571;50.974;13.936;2023-03-22T05:37:47;99770.47;;;7.98;100.00
28310;BME280;15571;50.974;13.936;2023-03-22T05:40:51;99775.66;;;7.98;100.00
28310;BME280;15571;50.974;13.936;2023-03-22T05:44:00;99772.19;;;7.99;100.00
28310;BME280;15571;50.974;13.936;2023-03-22T05:47:05;99769.59;;;8.02;100.00
28310;BME280;15571;50.974;13.936;2023-03-22T05:50:15;99771.31;;;8.01;100.00
28310;BME280;15571;50.974;13.936;2023-03-22T05:53:24;99769.56;;;8.06;100.00
28310;BME280;15571;50.974;13.936;2023-03-22T05:56:34;99770.41;;;8.13;100.00
28310;BME280;15571;50.974;13.936;2023-03-22T05:59:43;99773.88;;;8.18;100.00
28310;BME280;15571;50.974;13.936;2023-03-22T06:02:54;99776.47;;;8.23;100.00
28310;BME280;15571;50.974;13.936;2023-03-22T06:06:11;99775.59;;;8.29;100.00
28310;BME280;15571;50.974;13.936;2023-03-22T06:09:21;99768.63;;;8.31;100.00
28310;BME280;15571;50.974;13.936;2023-03-22T06:12:26;99767.75;;;8.30;100.00
28310;BME280;15571;50.974;13.936;2023-03-22T06:15:36;99774.69;;;8.33;100.00
28310;BME280;15571;50.974;13.936;2023-03-22T06:18:44;99776.44;;;8.37;100.00
28310;BME280;15571;50.974;13.936;2023-03-22T06:21:53;99765.97;;;8.43;100.00
28310;BME280;15571;50.974;13.936;2023-03-22T06:25:02;99771.19;;;8.51;100.00
28310;BME280;15571;50.974;13.936;2023-03-22T06:28:16;99766.81;;;8.57;100.00
28310;BME280;15571;50.974;13.936;2023-03-22T06:31:28;99751.13;;;8.65;100.00
28310;BME280;15571;50.974;13.936;2023-03-22T06:34:41;99767.59;;;8.75;100.00
28310;BME280;15571;50.974;13.936;2023-03-22T06:37:48;99749.28;;;8.84;100.00
28310;BME280;15571;50.974;13.936;2023-03-22T06:40:50;99754.44;;;8.94;100.00
28310;BME280;15571;50.974;13.936;2023-03-22T06:43:54;99742.19;;;9.02;100.00
28310;BME280;15571;50.974;13.936;2023-03-22T06:47:16;99749.97;;;9.13;100.00
28310;BME280;15571;50.974;13.936;2023-03-22T06:50:31;99749.91;;;9.22;100.00
28310;BME280;15571;50.974;13.936;2023-03-22T06:53:48;99757.66;;;9.31;100.00
28310;BME280;15571;50.974;13.936;2023-03-22T06:56:55;99754.97;;;9.41;100.00
28310;BME280;15571;50.974;13.936;2023-03-22T07:00:05;99754.03;;;9.49;100.00
28310;BME280;15571;50.974;13.936;2023-03-22T07:03:09;99752.22;;;9.58;100.00
28310;BME280;15571;50.974;13.936;2023-03-22T07:06:20;99753.88;;;9.68;100.00
28310;BME280;15571;50.974;13.936;2023-03-22T07:09:27;99746.84;;;9.73;100.00
28310;BME280;15571;50.974;13.936;2023-03-22T07:12:33;99743.25;;;9.84;100.00
28310;BME280;15571;50.974;13.936;2023-03-22T07:15:42;99755.38;;;9.91;100.00
28310;BME280;15571;50.974;13.936;2023-03-22T07:18:57;99757.03;;;10.00;100.00
28310;BME280;15571;50.974;13.936;2023-03-22T07:22:02;99761.34;;;10.05;100.00
28310;BME280;15571;50.974;13.936;2023-03-22T07:25:12;99762.13;;;10.13;100.00
28310;BME280;15571;50.974;13.936;2023-03-22T07:28:17;99745.47;;;10.21;100.00
28310;BME280;15571;50.974;13.936;2023-03-22T07:31:26;99748.00;;;10.28;100.00
28310;BME280;15571;50.974;13.936;2023-03-22T07:34:44;99743.53;;;10.37;100.00
28310;BME280;15571;50.974;13.936;2023-03-22T07:37:54;99741.75;;;10.43;100.00
28310;BME280;15571;50.974;13.936;2023-03-22T07:41:07;99737.34;;;10.46;100.00
28310;BME280;15571;50.974;13.936;2023-03-22T07:44:28;99735.50;;;10.54;100.00
28310;BME280;15571;50.974;13.936;2023-03-22T07:47:43;99732.81;;;10.58;100.00
28310;BME280;15571;50.974;13.936;2023-03-22T07:51:05;99731.97;;;10.58;100.00
28310;BME280;15571;50.974;13.936;2023-03-22T07:54:11;99738.03;;;10.62;100.00
28310;BME280;15571;50.974;13.936;2023-03-22T07:57:20;99730.09;;;10.66;100.00
28310;BME280;15571;50.974;13.936;2023-03-22T08:00:35;99735.31;;;10.68;100.00
28310;BME280;15571;50.974;13.936;2023-03-22T08:03:56;99735.25;;;10.72;100.00
28310;BME280;15571;50.974;13.936;2023-03-22T08:07:23;99736.88;;;10.80;100.00
28310;BME280;15571;50.974;13.936;2023-03-22T08:10:27;99730.69;;;10.85;100.00
28310;BME280;15571;50.974;13.936;2023-03-22T08:13:36;99735.91;;;10.88;100.00
28310;BME280;15571;50.974;13.936;2023-03-22T08:16:44;99732.28;;;10.96;100.00
28310;BME280;15571;50.974;13.936;2023-03-22T08:19:51;99740.91;;;11.04;100.00
28310;BME280;15571;50.974;13.936;2023-03-22T08:23:13;99736.44;;;11.11;100.00
28310;BME280;15571;50.974;13.936;2023-03-22T08:26:37;99728.44;;;11.21;100.00
28310;BME280;15571;50.974;13.936;2023-03-22T08:29:50;99729.16;;;11.28;100.00
28310;BME280;15571;50.974;13.936;2023-03-22T08:32:56;99736.78;;;11.42;100.00
28310;BME280;15571;50.974;13.936;2023-03-22T08:36:04;99731.44;;;11.50;100.00
28310;BME280;15571;50.974;13.936;2023-03-22T08:39:19;99734.78;;;11.60;100.00
28310;BME280;15571;50.974;13.936;2023-03-22T08:42:50;99727.59;;;11.70;100.00
28310;BME280;15571;50.974;13.936;2023-03-22T08:46:18;99721.41;;;11.74;100.00
28310;BME280;15571;50.974;13.936;2023-03-22T08:49:22;99726.53;;;11.80;100.00
28310;BME280;15571;50.974;13.936;2023-03-22T08:52:35;99719.38;;;11.88;100.00
28310;BME280;15571;50.974;13.936;2023-03-22T08:55:57;99717.59;;;11.90;100.00
28310;BME280;15571;50.974;13.936;2023-03-22T08:59:24;99716.75;;;11.88;100.00
28310;BME280;15571;50.974;13.936;2023-03-22T09:02:40;99712.22;;;11.96;100.00
28310;BME280;15571;50.974;13.936;2023-03-22T09:05:45;99709.59;;;11.99;100.00
28310;BME280;15571;50.974;13.936;2023-03-22T09:08:50;99709.53;;;12.03;100.00
28310;BME280;15571;50.974;13.936;2023-03-22T09:11:56;99703.31;;;12.07;100.00
28310;BME280;15571;50.974;13.936;2023-03-22T09:14:59;99706.72;;;12.12;100.00
28310;BME280;15571;50.974;13.936;2023-03-22T09:18:07;99697.97;;;12.13;100.00
28310;BME280;15571;50.974;13.936;2023-03-22T09:21:10;99694.25;;;12.23;100.00
28310;BME280;15571;50.974;13.936;2023-03-22T09:24:25;99687.84;;;12.37;100.00
28310;BME280;15571;50.974;13.936;2023-03-22T09:27:34;99690.19;;;12.49;100.00
28310;BME280;15571;50.974;13.936;2023-03-22T09:30:39;99682.03;;;12.63;100.00
28310;BME280;15571;50.974;13.936;2023-03-22T09:33:49;99680.00;;;12.74;100.00
28310;BME280;15571;50.974;13.936;2023-03-22T09:36:56;99684.03;;;12.89;100.00
28310;BME280;15571;50.974;13.936;2023-03-22T09:40:07;99683.75;;;13.02;100.00
28310;BME280;15571;50.974;13.936;2023-03-22T09:43:11;99686.03;;;13.16;100.00
28310;BME280;15571;50.974;13.936;2023-03-22T09:46:18;99679.69;;;13.24;100.00
28310;BME280;15571;50.974;13.936;2023-03-22T09:49:32;99675.91;;;13.35;100.00
28310;BME280;15571;50.974;13.936;2023-03-22T09:52:36;99666.03;;;13.46;100.00
28310;BME280;15571;50.974;13.936;2023-03-22T09:55:40;99663.16;;;13.56;100.00
28310;BME280;15571;50.974;13.936;2023-03-22T09:58:47;99662.97;;;13.62;100.00
28310;BME280;15571;50.974;13.936;2023-03-22T10:01:59;99663.72;;;13.67;100.00
28310;BME280;15571;50.974;13.936;2023-03-22T10:05:13;99651.28;;;13.72;100.00
28310;BME280;15571;50.974;13.936;2023-03-22T10:08:24;99641.53;;;13.77;100.00
28310;BME280;15571;50.974;13.936;2023-03-22T10:11:34;99645.69;;;13.86;100.00
28310;BME280;15571;50.974;13.936;2023-03-22T10:14:44;99636.84;;;13.87;100.00
28310;BME280;15571;50.974;13.936;2023-03-22T10:17:51;99634.09;;;13.92;100.00
28310;BME280;15571;50.974;13.936;2023-03-22T10:20:58;99629.69;;;13.92;100.00
28310;BME280;15571;50.974;13.936;2023-03-22T10:24:07;99612.91;;;13.96;100.00
28310;BME280;15571;50.974;13.936;2023-03-22T10:27:19;99617.13;;;14.02;100.00
28310;BME280;15571;50.974;13.936;2023-03-22T10:30:24;99617.94;;;14.04;100.00
28310;BME280;15571;50.974;13.936;2023-03-22T10:33:39;99620.56;;;14.06;100.00
28310;BME280;15571;50.974;13.936;2023-03-22T10:36:57;99617.59;;;14.16;100.00
28310;BME280;15571;50.974;13.936;2023-03-22T10:40:05;99603.41;;;14.21;100.00
28310;BME280;15571;50.974;13.936;2023-03-22T10:43:12;99606.59;;;14.32;100.00
28310;BME280;15571;50.974;13.936;2023-03-22T10:46:24;99600.19;;;14.41;100.00
28310;BME280;15571;50.974;13.936;2023-03-22T10:49:27;99596.50;;;14.46;100.00
28310;BME280;15571;50.974;13.936;2023-03-22T10:52:39;99593.56;;;14.56;100.00
28310;BME280;15571;50.974;13.936;2023-03-22T10:55:45;99594.25;;;14.62;100.00
28310;BME280;15571;50.974;13.936;2023-03-22T10:58:50;99593.22;;;14.68;100.00
28310;BME280;15571;50.974;13.936;2023-03-22T11:01:57;99588.00;;;14.65;100.00
28310;BME280;15571;50.974;13.936;2023-03-22T11:05:01;99581.97;;;14.61;100.00
28310;BME280;15571;50.974;13.936;2023-03-22T11:08:13;99580.34;;;14.57;100.00
28310;BME280;15571;50.974;13.936;2023-03-22T11:11:16;99569.72;;;14.60;100.00
28310;BME280;15571;50.974;13.936;2023-03-22T11:14:23;99575.75;;;14.64;100.00
28310;BME280;15571;50.974;13.936;2023-03-22T11:17:27;99567.03;;;14.62;100.00
28310;BME280;15571;50.974;13.936;2023-03-22T11:20:42;99556.34;;;14.68;100.00
28310;BME280;15571;50.974;13.936;2023-03-22T11:23:56;99553.41;;;14.76;100.00
28310;BME280;15571;50.974;13.936;2023-03-22T11:27:02;99538.38;;;14.79;100.00
28310;BME280;15571;50.974;13.936;2023-03-22T11:30:16;99536.44;;;14.85;100.00
28310;BME280;15571;50.974;13.936;2023-03-22T11:33:21;99519.72;;;14.86;100.00
28310;BME280;15571;50.974;13.936;2023-03-22T11:36:27;99528.38;;;14.89;100.00
28310;BME280;15571;50.974;13.936;2023-03-22T11:39:32;99512.41;;;14.94;100.00
28310;BME280;15571;50.974;13.936;2023-03-22T11:42:37;99511.28;;;15.01;100.00
28310;BME280;15571;50.974;13.936;2023-03-22T11:45:43;99512.03;;;15.05;100.00
28310;BME280;15571;50.974;13.936;2023-03-22T11:48:48;99501.63;;;15.02;100.00
28310;BME280;15571;50.974;13.936;2023-03-22T11:51:54;99499.81;;;15.02;100.00
28310;BME280;15571;50.974;13.936;2023-03-22T11:55:03;99496.28;;;15.03;100.00
28310;BME280;15571;50.974;13.936;2023-03-22T11:58:05;99483.09;;;15.03;100.00
28310;BME280;15571;50.974;13.936;2023-03-22T12:01:09;99486.38;;;15.10;100.00
28310;BME280;15571;50.974;13.936;2023-03-22T12:04:23;99482.38;;;15.23;100.00
28310;BME280;15571;50.974;13.936;2023-03-22T12:07:27;99486.28;;;15.37;100.00
28310;BME280;15571;50.974;13.936;2023-03-22T12:10:35;99479.63;;;15.50;100.00
28310;BME280;15571;50.974;13.936;2023-03-22T12:13:49;99471.72;;;15.50;100.00
28310;BME280;15571;50.974;13.936;2023-03-22T12:16:54;99466.94;;;15.60;100.00
28310;BME280;15571;50.974;13.936;2023-03-22T12:20:04;99462.53;;;15.61;100.00
28310;BME280;15571;50.974;13.936;2023-03-22T12:23:13;99458.75;;;15.68;100.00
28310;BME280;15571;50.974;13.936;2023-03-22T12:26:25;99452.13;;;15.80;100.00
28310;BME280;15571;50.974;13.936;2023-03-22T12:29:29;99451.94;;;15.86;100.00
28310;BME280;15571;50.974;13.936;2023-03-22T12:32:33;99452.50;;;15.93;100.00
28310;BME280;15571;50.974;13.936;2023-03-22T12:35:44;99445.38;;;15.96;100.00
28310;BME280;15571;50.974;13.936;2023-03-22T12:38:52;99446.28;;;15.95;100.00
28310;BME280;15571;50.974;13.936;2023-03-22T12:42:02;99432.91;;;16.00;100.00
28310;BME280;15571;50.974;13.936;2023-03-22T12:45:10;99429.34;;;16.01;100.00
28310;BME280;15571;50.974;13.936;2023-03-22T12:48:18;99428.19;;;16.07;100.00
28310;BME280;15571;50.974;13.936;2023-03-22T12:51:25;99427.28;;;16.08;100.00
28310;BME280;15571;50.974;13.936;2023-03-22T12:54:37;99420.97;;;16.12;100.00
28310;BME280;15571;50.974;13.936;2023-03-22T12:57:48;99420.84;;;16.15;100.00
28310;BME280;15571;50.974;13.936;2023-03-22T13:00:54;99414.50;;;16.19;100.00
28310;BME280;15571;50.974;13.936;2023-03-22T13:10:49;99412.16;;;16.33;100.00
28310;BME280;15571;50.974;13.936;2023-03-22T13:14:05;99404.16;;;16.35;100.00
28310;BME280;15571;50.974;13.936;2023-03-22T13:17:10;99407.78;;;16.32;100.00
28310;BME280;15571;50.974;13.936;2023-03-22T13:20:20;99402.44;;;16.34;100.00
28310;BME280;15571;50.974;13.936;2023-03-22T13:23:29;99398.94;;;16.33;100.00
28310;BME280;15571;50.974;13.936;2023-03-22T13:26:38;99400.66;;;16.34;98.19
28310;BME280;15571;50.974;13.936;2023-03-22T13:29:52;99394.13;;;16.43;100.00
28310;BME280;15571;50.974;13.936;2023-03-22T13:32:58;99391.56;;;16.42;95.55
28310;BME280;15571;50.974;13.936;2023-03-22T13:36:05;99386.66;;;16.53;93.41
28310;BME280;15571;50.974;13.936;2023-03-22T13:39:14;99385.47;;;16.60;95.41
28310;BME280;15571;50.974;13.936;2023-03-22T13:42:25;99389.91;;;16.60;85.86
28310;BME280;15571;50.974;13.936;2023-03-22T13:45:34;99384.22;;;16.69;79.58
28310;BME280;15571;50.974;13.936;2023-03-22T13:48:43;99378.44;;;16.80;85.32
28310;BME280;15571;50.974;13.936;2023-03-22T13:51:55;99379.22;;;16.82;86.47
28310;BME280;15571;50.974;13.936;2023-03-22T13:55:15;99375.50;;;16.86;87.75
28310;BME280;15571;50.974;13.936;2023-03-22T13:58:48;99359.66;;;16.86;83.19
28310;BME280;15571;50.974;13.936;2023-03-22T14:01:55;99361.31;;;16.89;82.90
28310;BME280;15571;50.974;13.936;2023-03-22T14:05:00;99356.75;;;16.92;85.66
28310;BME280;15571;50.974;13.936;2023-03-22T14:08:05;99362.03;;;16.92;85.72
28310;BME280;15571;50.974;13.936;2023-03-22T14:11:16;99360.53;;;16.87;76.80
28310;BME280;15571;50.974;13.936;2023-03-22T14:14:23;99358.34;;;16.96;79.54
28310;BME280;15571;50.974;13.936;2023-03-22T14:17:34;99353.94;;;16.97;78.56
28310;BME280;15571;50.974;13.936;2023-03-22T14:20:50;99355.69;;;16.96;78.59
28310;BME280;15571;50.974;13.936;2023-03-22T14:24:02;99354.78;;;16.98;79.68
28310;BME280;15571;50.974;13.936;2023-03-22T14:27:08;99350.41;;;16.96;79.90
28310;BME280;15571;50.974;13.936;2023-03-22T14:30:18;99353.00;;;16.98;82.23
28310;BME280;15571;50.974;13.936;2023-03-22T14:33:24;99350.50;;;16.95;83.89
28310;BME280;15571;50.974;13.936;2023-03-22T14:36:32;99346.19;;;16.92;84.46
28310;BME280;15571;50.974;13.936;2023-03-22T14:39:41;99343.53;;;16.92;86.83
28310;BME280;15571;50.974;13.936;2023-03-22T14:42:46;99342.81;;;16.89;87.30
28310;BME280;15571;50.974;13.936;2023-03-22T14:46:00;99343.78;;;16.86;85.99
28310;BME280;15571;50.974;13.936;2023-03-22T14:49:12;99343.66;;;16.89;87.12
28310;BME280;15571;50.974;13.936;2023-03-22T14:52:17;99339.28;;;16.88;88.77
28310;BME280;15571;50.974;13.936;2023-03-22T14:55:25;99338.50;;;16.86;89.31
28310;BME280;15571;50.974;13.936;2023-03-22T14:58:31;99349.06;;;16.86;89.90
28310;BME280;15571;50.974;13.936;2023-03-22T15:01:41;99337.75;;;16.84;89.44
28310;BME280;15571;50.974;13.936;2023-03-22T15:04:46;99344.88;;;16.82;88.17
28310;BME280;15571;50.974;13.936;2023-03-22T15:07:54;99345.81;;;16.81;87.85
28310;BME280;15571;50.974;13.936;2023-03-22T15:11:12;99338.78;;;16.80;86.48
28310;BME280;15571;50.974;13.936;2023-03-22T15:14:16;99338.88;;;16.78;86.21
28310;BME280;15571;50.974;13.936;2023-03-22T15:17:22;99335.22;;;16.81;86.67
28310;BME280;15571;50.974;13.936;2023-03-22T15:20:29;99333.38;;;16.83;82.19
28310;BME280;15571;50.974;13.936;2023-03-22T15:23:46;99330.66;;;16.85;77.81
28310;BME280;15571;50.974;13.936;2023-03-22T15:26:49;99327.66;;;16.92;80.78
28310;BME280;15571;50.974;13.936;2023-03-22T15:29:52;99327.53;;;16.95;81.46
28310;BME280;15571;50.974;13.936;2023-03-22T15:33:04;99327.50;;;16.97;82.90
28310;BME280;15571;50.974;13.936;2023-03-22T16:30:48;99342.56;;;16.34;85.23
28310;BME280;15571;50.974;13.936;2023-03-22T16:38:21;99349.28;;;16.21;87.66
28310;BME280;15571;50.974;13.936;2023-03-22T16:41:30;99348.66;;;16.16;88.54
28310;BME280;15571;50.974;13.936;2023-03-22T16:44:40;99350.59;;;16.11;89.30
28310;BME280;15571;50.974;13.936;2023-03-22T16:47:53;99346.53;;;16.03;89.72
28310;BME280;15571;50.974;13.936;2023-03-22T16:50:56;99352.84;;;15.99;89.68
28310;BME280;15571;50.974;13.936;2023-03-22T16:54:00;99360.09;;;15.94;90.42
28310;BME280;15571;50.974;13.936;2023-03-22T16:57:04;99356.78;;;15.89;91.13
28310;BME280;15571;50.974;13.936;2023-03-22T17:00:12;99359.66;;;15.83;91.64
28310;BME280;15571;50.974;13.936;2023-03-22T17:03:24;99362.47;;;15.78;92.20
28310;BME280;15571;50.974;13.936;2023-03-22T17:06:33;99363.66;;;15.71;92.42
28310;BME280;15571;50.974;13.936;2023-03-22T17:09:43;99361.19;;;15.66;92.89
28310;BME280;15571;50.974;13.936;2023-03-22T17:12:47;99368.53;;;15.58;93.46
28310;BME280;15571;50.974;13.936;2023-03-22T17:15:52;99373.16;;;15.53;93.63
28310;BME280;15571;50.974;13.936;2023-03-22T17:19:15;99370.78;;;15.47;94.43
28310;BME280;15571;50.974;13.936;2023-03-22T17:22:27;99374.53;;;15.39;95.08
28310;BME280;15571;50.974;13.936;2023-03-22T17:25:32;99378.34;;;15.32;94.50
28310;BME280;15571;50.974;13.936;2023-03-22T17:28:41;99373.31;;;15.26;95.01
28310;BME280;15571;50.974;13.936;2023-03-22T17:31:45;99376.97;;;15.22;95.79
28310;BME280;15571;50.974;13.936;2023-03-22T17:34:58;99386.84;;;15.17;96.37
28310;BME280;15571;50.974;13.936;2023-03-22T17:38:05;99378.38;;;15.08;98.38